createdAt,value
2022-10-30T00:02:57.042Z,15.40
2022-10-30T00:07:59.721Z,15.80
2022-10-30T00:13:01.658Z,15.40
2022-10-30T00:18:03.537Z,15.30
2022-10-30T00:23:05.605Z,15.40
2022-10-30T00:28:07.745Z,15.30
2022-10-30T00:33:09.482Z,15.40
2022-10-30T00:38:11.153Z,15.40
2022-10-30T00:43:31.336Z,15.30
2022-10-30T00:48:33.648Z,15.30
2022-10-30T00:53:35.681Z,15.20
2022-10-30T00:58:43.197Z,15.10
2022-10-30T01:03:46.564Z,15.40
2022-10-30T01:08:48.950Z,15.00
2022-10-30T01:13:53.768Z,15.10
2022-10-30T01:19:09.529Z,14.90
2022-10-30T01:24:42.886Z,14.90
2022-10-30T01:29:59.378Z,15.10
2022-10-30T01:35:42.473Z,14.70
2022-10-30T01:40:44.987Z,14.70
2022-10-30T01:46:31.449Z,15.00
2022-10-30T01:51:56.093Z,14.70
2022-10-30T01:57:18.181Z,14.40
2022-10-30T02:02:20.241Z,14.60
2022-10-30T02:07:22.631Z,14.60
2022-10-30T02:12:24.933Z,14.70
2022-10-30T02:17:27.904Z,14.60
2022-10-30T02:22:29.625Z,14.60
2022-10-30T02:27:31.321Z,14.70
2022-10-30T02:32:32.998Z,14.60
2022-10-30T02:37:34.891Z,14.50
2022-10-30T02:42:36.612Z,14.60
2022-10-30T02:47:38.343Z,14.40
2022-10-30T02:52:40.124Z,14.60
2022-10-30T02:57:41.811Z,14.60
2022-10-30T03:02:43.524Z,14.40
2022-10-30T03:07:45.226Z,14.20
2022-10-30T03:12:46.916Z,14.10
2022-10-30T03:17:48.555Z,14.50
2022-10-30T03:22:50.202Z,14.50
2022-10-30T03:27:52.731Z,14.60
2022-10-30T03:32:54.376Z,14.40
2022-10-30T03:37:56.029Z,14.40
2022-10-30T03:42:57.796Z,14.30
2022-10-30T03:48:03.233Z,14.40
2022-10-30T03:53:04.927Z,14.60
2022-10-30T03:58:07.439Z,13.80
2022-10-30T04:03:10.047Z,14.20
2022-10-30T04:08:13.839Z,14.40
2022-10-30T04:13:17.882Z,15.00
2022-10-30T04:18:19.625Z,14.30
2022-10-30T04:23:22.345Z,14.10
2022-10-30T04:28:24.012Z,14.00
2022-10-30T04:33:25.744Z,14.20
2022-10-30T04:38:27.476Z,14.10
2022-10-30T04:43:29.181Z,14.20
2022-10-30T04:48:30.827Z,13.80
2022-10-30T04:53:32.507Z,14.20
2022-10-30T04:58:34.296Z,14.00
2022-10-30T05:03:36.021Z,14.00
2022-10-30T05:08:37.711Z,13.70
2022-10-30T05:13:39.377Z,13.50
2022-10-30T05:18:41.082Z,13.50
2022-10-30T05:23:42.758Z,13.20
2022-10-30T05:28:44.463Z,13.00
2022-10-30T05:33:46.111Z,13.00
2022-10-30T05:38:48.102Z,13.20
2022-10-30T05:43:49.761Z,13.50
2022-10-30T05:48:51.429Z,13.70
2022-10-30T05:53:53.122Z,14.10
2022-10-30T05:58:54.797Z,13.60
2022-10-30T06:03:57.525Z,13.50
2022-10-30T06:08:59.215Z,13.30
2022-10-30T06:14:00.922Z,13.40
2022-10-30T06:19:02.587Z,13.50
2022-10-30T06:24:04.624Z,13.40
2022-10-30T06:29:06.729Z,13.40
2022-10-30T06:34:08.391Z,13.50
2022-10-30T06:39:10.038Z,13.30
2022-10-30T06:44:11.727Z,13.80
2022-10-30T06:49:13.454Z,13.70
2022-10-30T06:54:15.103Z,13.60
2022-10-30T06:59:16.760Z,13.50
2022-10-30T07:04:18.541Z,13.50
2022-10-30T07:09:20.375Z,13.70
2022-10-30T07:14:22.064Z,14.10
2022-10-30T07:19:23.872Z,14.50
2022-10-30T07:24:25.578Z,14.40
2022-10-30T07:29:27.452Z,14.50
2022-10-30T07:34:29.157Z,14.50
2022-10-30T07:39:30.847Z,14.90
2022-10-30T07:44:32.550Z,14.90
2022-10-30T07:49:34.237Z,15.10
2022-10-30T07:54:35.955Z,15.20
2022-10-30T07:59:37.687Z,15.80
2022-10-30T08:04:39.434Z,16.00
2022-10-30T08:09:41.124Z,16.00
2022-10-30T08:14:42.794Z,16.10
2022-10-30T08:19:44.522Z,16.20
2022-10-30T08:24:46.201Z,16.40
2022-10-30T08:29:47.877Z,16.60
2022-10-30T08:34:49.526Z,16.90
2022-10-30T08:39:51.202Z,17.00
2022-10-30T08:44:52.877Z,17.10
2022-10-30T08:49:54.553Z,17.20
2022-10-30T08:54:56.288Z,17.50
2022-10-30T08:59:57.999Z,17.60
2022-10-30T09:05:00.417Z,17.60
2022-10-30T09:10:02.439Z,17.70
2022-10-30T09:15:04.556Z,17.90
2022-10-30T09:20:06.473Z,18.00
2022-10-30T09:25:09.081Z,18.20
2022-10-30T09:30:12.025Z,18.70
2022-10-30T09:35:13.706Z,19.10
2022-10-30T09:40:22.299Z,19.20
2022-10-30T09:45:30.535Z,19.40
2022-10-30T09:50:49.613Z,19.60
2022-10-30T09:56:19.415Z,19.80
2022-10-30T10:01:53.247Z,20.10
2022-10-30T10:07:04.408Z,20.50
2022-10-30T10:12:29.650Z,20.60
2022-10-30T10:17:38.719Z,20.70
2022-10-30T10:22:43.340Z,21.00
2022-10-30T10:28:00.152Z,21.10
2022-10-30T10:33:17.725Z,21.40
2022-10-30T10:38:34.177Z,21.70
2022-10-30T10:43:53.503Z,22.30
2022-10-30T10:49:09.151Z,22.50
2022-10-30T10:54:28.163Z,22.70
2022-10-30T10:59:34.815Z,22.80
2022-10-30T11:04:45.441Z,23.00
2022-10-30T11:09:52.596Z,23.30
2022-10-30T11:14:54.242Z,23.20
2022-10-30T11:20:03.158Z,22.90
2022-10-30T11:25:25.323Z,23.10
2022-10-30T11:30:30.549Z,23.60
2022-10-30T11:35:42.282Z,23.80
2022-10-30T11:40:51.367Z,24.00
2022-10-30T11:45:54.031Z,24.70
2022-10-30T11:51:04.776Z,24.20
2022-10-30T11:56:23.505Z,24.20
2022-10-30T12:01:51.183Z,24.10
2022-10-30T12:07:08.566Z,24.40
2022-10-30T12:12:31.620Z,24.60
2022-10-30T12:17:33.414Z,24.40
2022-10-30T12:22:35.721Z,24.60
2022-10-30T12:27:37.691Z,24.50
2022-10-30T12:33:09.225Z,24.50
2022-10-30T12:38:36.963Z,24.20
2022-10-30T12:43:41.610Z,24.60
2022-10-30T12:49:01.856Z,24.60
2022-10-30T12:54:26.499Z,24.50
2022-10-30T13:00:02.253Z,24.40
2022-10-30T13:05:27.410Z,24.30
2022-10-30T13:10:42.779Z,24.20
2022-10-30T13:15:51.753Z,24.00
2022-10-30T13:21:01.698Z,24.20
2022-10-30T13:26:19.081Z,24.20
2022-10-30T13:31:26.227Z,24.50
2022-10-30T13:42:19.200Z,23.80
2022-10-30T13:47:27.433Z,23.50
2022-10-30T13:52:32.703Z,23.40
2022-10-30T13:57:45.622Z,23.30
2022-10-30T14:02:59.523Z,23.20
2022-10-30T14:08:22.702Z,23.20
2022-10-30T14:13:47.727Z,23.20
2022-10-30T14:18:59.824Z,23.00
2022-10-30T14:24:29.088Z,23.10
2022-10-30T14:29:33.935Z,23.00
2022-10-30T14:34:51.168Z,22.90
2022-10-30T14:39:54.350Z,22.80
2022-10-30T14:45:15.256Z,22.80
2022-10-30T14:50:41.799Z,22.70
2022-10-30T14:56:07.536Z,22.60
2022-10-30T15:01:09.293Z,22.40
2022-10-30T15:06:36.045Z,22.30
2022-10-30T15:12:01.961Z,22.10
2022-10-30T15:17:04.143Z,22.10
2022-10-30T15:22:05.852Z,22.10
2022-10-30T15:27:11.992Z,22.00
2022-10-30T15:32:18.171Z,21.80
2022-10-30T15:37:19.837Z,21.70
2022-10-30T15:42:21.865Z,21.40
2022-10-30T15:47:23.571Z,21.30
2022-10-30T15:52:30.653Z,21.20
2022-10-30T15:58:01.769Z,20.90
2022-10-30T16:03:04.619Z,20.70
2022-10-30T16:08:15.197Z,20.60
2022-10-30T16:13:19.470Z,20.40
2022-10-30T16:18:27.673Z,20.20
2022-10-30T16:23:30.534Z,20.10
2022-10-30T16:28:34.829Z,20.10
2022-10-30T16:33:37.251Z,19.80
2022-10-30T16:38:39.207Z,19.60
2022-10-30T16:43:43.330Z,19.50
2022-10-30T16:49:00.533Z,19.30
2022-10-30T16:54:02.261Z,19.20
2022-10-30T16:59:15.106Z,19.10
2022-10-30T17:04:16.988Z,19.20
2022-10-30T17:09:24.370Z,19.00
2022-10-30T17:14:26.162Z,19.00
2022-10-30T17:19:30.538Z,18.90
2022-10-30T17:24:36.845Z,18.70
2022-10-30T17:29:38.452Z,18.60
2022-10-30T17:34:40.158Z,18.60
2022-10-30T17:39:41.912Z,18.40
2022-10-30T17:44:43.930Z,18.30
2022-10-30T17:49:45.684Z,18.40
2022-10-30T17:54:47.351Z,18.70
2022-10-30T17:59:49.027Z,18.30
2022-10-30T18:04:51.123Z,18.10
2022-10-30T18:09:52.799Z,17.90
2022-10-30T18:14:54.456Z,17.80
2022-10-30T18:19:56.092Z,17.70
2022-10-30T18:25:00.284Z,17.80
2022-10-30T18:30:01.982Z,17.80
2022-10-30T18:35:19.698Z,17.60
2022-10-30T18:40:22.672Z,17.60
2022-10-30T18:45:27.580Z,17.50
2022-10-30T18:50:30.953Z,17.40
2022-10-30T18:55:35.501Z,17.20
2022-10-30T19:01:10.053Z,17.20
2022-10-30T19:06:01.201Z,17.10
2022-10-30T19:11:02.986Z,17.30
2022-10-30T19:16:14.147Z,17.20
2022-10-30T19:21:18.942Z,17.10
2022-10-30T19:26:20.946Z,17.00
2022-10-30T19:31:22.669Z,16.90
2022-10-30T19:36:29.172Z,16.90
2022-10-30T19:46:37.875Z,17.00
2022-10-30T19:51:39.608Z,16.90
2022-10-30T19:56:41.393Z,16.90
2022-10-30T20:01:43.430Z,16.80
2022-10-30T20:06:45.155Z,16.60
2022-10-30T20:11:46.919Z,16.80
2022-10-30T20:16:48.592Z,16.70
2022-10-30T20:21:50.279Z,16.50
2022-10-30T20:26:52.995Z,16.50
2022-10-30T20:31:54.729Z,16.70
2022-10-30T20:36:56.388Z,16.40
2022-10-30T20:41:58.139Z,16.30
2022-10-30T20:46:59.821Z,16.10
2022-10-30T20:52:01.583Z,16.10
2022-10-30T20:57:03.323Z,15.80
2022-10-30T21:02:05.347Z,15.90
2022-10-30T21:07:07.194Z,16.00
2022-10-30T21:12:08.888Z,16.00
2022-10-30T21:17:10.599Z,16.00
2022-10-30T21:22:12.307Z,15.90
2022-10-30T21:27:13.998Z,16.00
2022-10-30T21:32:15.843Z,15.80
2022-10-30T21:37:17.542Z,15.80
2022-10-30T21:42:19.316Z,15.40
2022-10-30T21:47:21.079Z,15.40
2022-10-30T21:52:22.794Z,15.60
2022-10-30T21:57:24.750Z,15.60
2022-10-30T22:02:26.450Z,15.60
2022-10-30T22:07:28.150Z,15.70
2022-10-30T22:12:29.861Z,15.80
2022-10-30T22:17:34.814Z,15.70
2022-10-30T22:22:36.887Z,15.90
2022-10-30T22:27:38.560Z,15.80
2022-10-30T22:32:40.643Z,15.70
2022-10-30T22:37:42.303Z,15.60
2022-10-30T22:42:43.985Z,15.50
2022-10-30T22:47:45.654Z,15.40
2022-10-30T22:52:47.348Z,15.40
2022-10-30T22:57:53.179Z,15.80
2022-10-30T23:02:55.116Z,15.70
2022-10-30T23:07:56.814Z,15.80
2022-10-30T23:12:58.808Z,15.40
2022-10-30T23:18:01.078Z,15.30
2022-10-30T23:23:04.621Z,15.30
2022-10-30T23:28:11.059Z,15.30
2022-10-30T23:33:12.919Z,15.20
2022-10-30T23:38:14.649Z,15.30
2022-10-30T23:43:16.669Z,15.30
2022-10-30T23:48:18.555Z,15.30
2022-10-30T23:53:20.238Z,15.20
2022-10-30T23:58:22.120Z,15.00
